Kurahashi — JD2319 — position and weather

sailwx.info

Track history (hours):
 
Tides and Currents Weather Stations Pressure Air Temp Water Temp Dewpoint Dewpoint Depression Visibility Wind Speed Wind Dir Waves Ship Positions

Kurahashi

Last reported at 2017-Nov-19 08:24 UTC. Time now 2017-Nov-20 13:22 UTC.
Position N 34°07' E 134°60'.

Length 73 m; draft 4.1 m.

Type: Ship (hazmat cat C). MMSI: 431402059.

Date/timePositionNaut miles runAvg speedWind from/ knotsBaromVisibWave heightAir tempDewpointWater temp
2017-Nov-19 08:24N 34°07' E 134°60'2010.5
2017-Nov-19 06:31N 34°26' E 135°07'111.4
2017-Nov-19 06:25N 34°27' E 135°08'411.0
2017-Nov-19 06:00N 34°30' E 135°13'510.1
2017-Nov-19 05:30N 34°33' E 135°18'5 8.6
2017-Nov-19 04:58N 34°35' E 135°22'0 0.1
2017-Nov-19 04:31N 34°35' E 135°22'0 0.0
2017-Nov-19 04:00N 34°35' E 135°22'0 0.0
2017-Nov-19 03:26N 34°35' E 135°22'0 0.0
2017-Nov-19 03:01N 34°35' E 135°22'0 0.0
2017-Nov-19 02:30N 34°35' E 135°22'0 0.0
2017-Nov-19 02:01N 34°35' E 135°22'0 0.0
2017-Nov-19 01:30N 34°35' E 135°22'0 0.0
2017-Nov-19 00:58N 34°35' E 135°22'0 0.0
2017-Nov-19 00:29N 34°35' E 135°22'0 0.0
2017-Nov-18 23:59N 34°35' E 135°22'0 0.0
2017-Nov-18 23:25N 34°35' E 135°22'0 0.0
2017-Nov-18 23:00N 34°35' E 135°22'0 0.0
2017-Nov-18 22:30N 34°35' E 135°22'3 6.1
2017-Nov-18 22:01N 34°35' E 135°26'1 0.0
2017-Nov-17 08:32N 34°35' E 135°27'0 1.3
2017-Nov-17 08:29N 34°35' E 135°27'4 9.3
2017-Nov-17 08:01N 34°36' E 135°22'612.8
2017-Nov-17 07:31N 34°35' E 135°14'713.3
2017-Nov-17 07:01N 34°34' E 135°06'1013.5
2017-Nov-17 06:18N 34°36' E 134°55'  
Track history (hours):
 
Tides and Currents Weather Stations Pressure Air Temp Water Temp Dewpoint Dewpoint Depression Visibility Wind Speed Wind Dir Waves Ship Positions

Kurahashi

Last reported at 2017-Nov-19 08:24 UTC. Time now 2017-Nov-20 13:22 UTC.
Position N 34°07' E 134°60'.

Length 73 m; draft 4.1 m.

Type: Ship (hazmat cat C). MMSI: 431402059.

Date/timePositionNaut miles runAvg speedWind from/ knotsBaromVisibWave heightAir tempDewpointWater temp
2017-Nov-19 08:24N 34°07' E 134°60'2010.5
2017-Nov-19 06:31N 34°26' E 135°07'111.4
2017-Nov-19 06:25N 34°27' E 135°08'411.0
2017-Nov-19 06:00N 34°30' E 135°13'510.1
2017-Nov-19 05:30N 34°33' E 135°18'5 8.6
2017-Nov-19 04:58N 34°35' E 135°22'0 0.1
2017-Nov-19 04:31N 34°35' E 135°22'0 0.0
2017-Nov-19 04:00N 34°35' E 135°22'0 0.0
2017-Nov-19 03:26N 34°35' E 135°22'0 0.0
2017-Nov-19 03:01N 34°35' E 135°22'0 0.0
2017-Nov-19 02:30N 34°35' E 135°22'0 0.0
2017-Nov-19 02:01N 34°35' E 135°22'0 0.0
2017-Nov-19 01:30N 34°35' E 135°22'0 0.0
2017-Nov-19 00:58N 34°35' E 135°22'0 0.0
2017-Nov-19 00:29N 34°35' E 135°22'0 0.0
2017-Nov-18 23:59N 34°35' E 135°22'0 0.0
2017-Nov-18 23:25N 34°35' E 135°22'0 0.0
2017-Nov-18 23:00N 34°35' E 135°22'0 0.0
2017-Nov-18 22:30N 34°35' E 135°22'3 6.1
2017-Nov-18 22:01N 34°35' E 135°26'1 0.0
2017-Nov-17 08:32N 34°35' E 135°27'0 1.3
2017-Nov-17 08:29N 34°35' E 135°27'4 9.3
2017-Nov-17 08:01N 34°36' E 135°22'612.8
2017-Nov-17 07:31N 34°35' E 135°14'713.3
2017-Nov-17 07:01N 34°34' E 135°06'1013.5
2017-Nov-17 06:18N 34°36' E 134°55'  

Dump ship's entire track history